sensor_id;sensor_type;location;lat;lon;timestamp;pressure;altitude;pressure_sealevel;temperature;humidity
16690;BME280;8458;52.220;9.884;2022-11-20T00:01:23;100532.63;;;-2.21;85.40
16690;BME280;8458;52.220;9.884;2022-11-20T00:03:50;100526.63;;;-2.16;85.19
16690;BME280;8458;52.220;9.884;2022-11-20T00:06:19;100529.63;;;-2.11;85.27
16690;BME280;8458;52.220;9.884;2022-11-20T00:08:46;100533.94;;;-2.02;84.94
16690;BME280;8458;52.220;9.884;2022-11-20T00:11:16;100525.16;;;-2.04;84.51
16690;BME280;8458;52.220;9.884;2022-11-20T00:13:43;100531.06;;;-2.15;83.87
16690;BME280;8458;52.220;9.884;2022-11-20T00:16:11;100527.47;;;-2.16;84.09
16690;BME280;8458;52.220;9.884;2022-11-20T00:18:38;100527.00;;;-2.19;83.74
16690;BME280;8458;52.220;9.884;2022-11-20T00:21:06;100528.72;;;-2.18;84.17
16690;BME280;8458;52.220;9.884;2022-11-20T00:23:33;100523.91;;;-2.16;83.85
16690;BME280;8458;52.220;9.884;2022-11-20T00:26:03;100525.69;;;-2.23;83.84
16690;BME280;8458;52.220;9.884;2022-11-20T00:28:31;100535.34;;;-2.21;84.23
16690;BME280;8458;52.220;9.884;2022-11-20T00:31:02;100527.84;;;-2.19;83.80
16690;BME280;8458;52.220;9.884;2022-11-20T00:33:30;100525.31;;;-2.20;84.10
16690;BME280;8458;52.220;9.884;2022-11-20T00:35:59;100524.19;;;-2.11;84.25
16690;BME280;8458;52.220;9.884;2022-11-20T00:38:27;100522.16;;;-2.09;83.51
16690;BME280;8458;52.220;9.884;2022-11-20T00:40:57;100520.94;;;-2.06;83.53
16690;BME280;8458;52.220;9.884;2022-11-20T00:43:25;100525.06;;;-1.95;83.20
16690;BME280;8458;52.220;9.884;2022-11-20T00:45:57;100523.66;;;-1.91;82.82
16690;BME280;8458;52.220;9.884;2022-11-20T00:48:24;100517.47;;;-1.85;83.30
16690;BME280;8458;52.220;9.884;2022-11-20T00:50:50;100516.47;;;-1.84;82.98
16690;BME280;8458;52.220;9.884;2022-11-20T00:53:17;100515.41;;;-1.83;82.78
16690;BME280;8458;52.220;9.884;2022-11-20T00:55:52;100514.38;;;-1.82;82.72
16690;BME280;8458;52.220;9.884;2022-11-20T00:58:18;100509.22;;;-1.77;82.52
16690;BME280;8458;52.220;9.884;2022-11-20T01:00:45;100518.06;;;-1.75;82.46
16690;BME280;8458;52.220;9.884;2022-11-20T01:03:13;100510.53;;;-1.73;81.93
16690;BME280;8458;52.220;9.884;2022-11-20T01:05:39;100511.38;;;-1.72;81.93
16690;BME280;8458;52.220;9.884;2022-11-20T01:08:06;100516.34;;;-1.76;81.74
16690;BME280;8458;52.220;9.884;2022-11-20T01:10:32;100521.03;;;-1.70;81.71
16690;BME280;8458;52.220;9.884;2022-11-20T01:12:59;100510.53;;;-1.73;81.79
16690;BME280;8458;52.220;9.884;2022-11-20T01:15:39;100514.66;;;-1.77;81.75
16690;BME280;8458;52.220;9.884;2022-11-20T01:18:05;100510.09;;;-1.76;81.06
16690;BME280;8458;52.220;9.884;2022-11-20T01:20:35;100510.47;;;-1.79;81.04
16690;BME280;8458;52.220;9.884;2022-11-20T01:23:02;100506.59;;;-1.85;81.30
16690;BME280;8458;52.220;9.884;2022-11-20T01:25:29;100511.03;;;-1.84;81.46
16690;BME280;8458;52.220;9.884;2022-11-20T01:27:55;100508.69;;;-1.87;81.35
16690;BME280;8458;52.220;9.884;2022-11-20T01:30:22;100511.59;;;-1.89;81.48
16690;BME280;8458;52.220;9.884;2022-11-20T01:32:48;100501.09;;;-1.92;81.41
16690;BME280;8458;52.220;9.884;2022-11-20T01:35:15;100497.81;;;-1.87;81.34
16690;BME280;8458;52.220;9.884;2022-11-20T01:37:43;100487.56;;;-1.85;81.35
16690;BME280;8458;52.220;9.884;2022-11-20T01:40:10;100488.59;;;-1.86;81.33
16690;BME280;8458;52.220;9.884;2022-11-20T01:42:37;100486.94;;;-1.87;81.37
16690;BME280;8458;52.220;9.884;2022-11-20T01:48:28;100483.63;;;-1.98;80.96
16690;BME280;8458;52.220;9.884;2022-11-20T01:50:57;100471.75;;;-1.96;80.48
16690;BME280;8458;52.220;9.884;2022-11-20T01:53:29;100470.81;;;-2.04;80.42
16690;BME280;8458;52.220;9.884;2022-11-20T01:55:58;100468.09;;;-2.04;80.43
16690;BME280;8458;52.220;9.884;2022-11-20T01:58:29;100464.72;;;-2.06;80.67
16690;BME280;8458;52.220;9.884;2022-11-20T02:00:58;100466.41;;;-2.20;80.63
16690;BME280;8458;52.220;9.884;2022-11-20T02:03:25;100460.09;;;-2.20;80.34
16690;BME280;8458;52.220;9.884;2022-11-20T02:05:55;100461.91;;;-2.27;80.96
16690;BME280;8458;52.220;9.884;2022-11-20T02:08:23;100460.56;;;-2.31;81.07
16690;BME280;8458;52.220;9.884;2022-11-20T02:10:51;100456.16;;;-2.32;81.16
16690;BME280;8458;52.220;9.884;2022-11-20T02:13:18;100463.38;;;-2.40;81.30
16690;BME280;8458;52.220;9.884;2022-11-20T02:16:02;100462.34;;;-2.39;81.51
16690;BME280;8458;52.220;9.884;2022-11-20T02:18:30;100465.72;;;-2.37;81.46
16690;BME280;8458;52.220;9.884;2022-11-20T02:21:01;100465.41;;;-2.42;81.68
16690;BME280;8458;52.220;9.884;2022-11-20T02:23:33;100467.75;;;-2.39;81.38
16690;BME280;8458;52.220;9.884;2022-11-20T02:26:07;100465.53;;;-2.35;81.08
16690;BME280;8458;52.220;9.884;2022-11-20T02:28:35;100462.81;;;-2.35;81.26
16690;BME280;8458;52.220;9.884;2022-11-20T02:31:02;100455.72;;;-2.21;80.73
16690;BME280;8458;52.220;9.884;2022-11-20T02:33:28;100452.06;;;-2.28;80.81
16690;BME280;8458;52.220;9.884;2022-11-20T02:35:54;100455.41;;;-2.26;80.48
16690;BME280;8458;52.220;9.884;2022-11-20T02:38:21;100445.41;;;-2.26;80.72
16690;BME280;8458;52.220;9.884;2022-11-20T02:40:48;100442.38;;;-2.31;80.85
16690;BME280;8458;52.220;9.884;2022-11-20T02:43:16;100447.44;;;-2.28;81.00
16690;BME280;8458;52.220;9.884;2022-11-20T02:45:43;100435.09;;;-2.30;80.86
16690;BME280;8458;52.220;9.884;2022-11-20T02:48:09;100439.13;;;-2.26;81.14
16690;BME280;8458;52.220;9.884;2022-11-20T02:50:37;100434.06;;;-2.29;80.67
16690;BME280;8458;52.220;9.884;2022-11-20T02:53:04;100435.28;;;-2.32;80.89
16690;BME280;8458;52.220;9.884;2022-11-20T02:55:31;100438.84;;;-2.31;80.83
16690;BME280;8458;52.220;9.884;2022-11-20T02:57:57;100436.59;;;-2.28;80.90
16690;BME280;8458;52.220;9.884;2022-11-20T03:00:25;100430.59;;;-2.23;80.35
16690;BME280;8458;52.220;9.884;2022-11-20T03:02:51;100424.78;;;-2.20;80.44
16690;BME280;8458;52.220;9.884;2022-11-20T03:05:18;100429.56;;;-2.22;80.45
16690;BME280;8458;52.220;9.884;2022-11-20T03:07:44;100425.66;;;-2.20;80.39
16690;BME280;8458;52.220;9.884;2022-11-20T03:10:11;100428.63;;;-2.29;80.23
16690;BME280;8458;52.220;9.884;2022-11-20T03:12:37;100436.31;;;-2.33;80.42
16690;BME280;8458;52.220;9.884;2022-11-20T03:15:05;100434.81;;;-2.36;80.29
16690;BME280;8458;52.220;9.884;2022-11-20T03:17:33;100430.69;;;-2.31;80.36
16690;BME280;8458;52.220;9.884;2022-11-20T03:20:00;100430.47;;;-2.45;80.44
16690;BME280;8458;52.220;9.884;2022-11-20T03:22:28;100425.91;;;-2.44;81.03
16690;BME280;8458;52.220;9.884;2022-11-20T03:24:55;100426.38;;;-2.41;80.91
16690;BME280;8458;52.220;9.884;2022-11-20T03:27:21;100428.13;;;-2.48;81.02
16690;BME280;8458;52.220;9.884;2022-11-20T03:29:48;100423.00;;;-2.43;80.75
16690;BME280;8458;52.220;9.884;2022-11-20T03:32:14;100423.00;;;-2.43;80.76
16690;BME280;8458;52.220;9.884;2022-11-20T03:34:42;100418.78;;;-2.45;80.89
16690;BME280;8458;52.220;9.884;2022-11-20T03:37:09;100421.31;;;-2.44;80.99
16690;BME280;8458;52.220;9.884;2022-11-20T03:39:35;100417.59;;;-2.43;80.69
16690;BME280;8458;52.220;9.884;2022-11-20T03:42:02;100408.22;;;-2.55;81.04
16690;BME280;8458;52.220;9.884;2022-11-20T03:44:48;100410.19;;;-2.49;81.21
16690;BME280;8458;52.220;9.884;2022-11-20T03:47:14;100409.50;;;-2.51;80.79
16690;BME280;8458;52.220;9.884;2022-11-20T03:49:42;100404.94;;;-2.50;81.02
16690;BME280;8458;52.220;9.884;2022-11-20T03:52:09;100405.97;;;-2.52;80.73
16690;BME280;8458;52.220;9.884;2022-11-20T03:54:35;100408.75;;;-2.45;80.64
16690;BME280;8458;52.220;9.884;2022-11-20T03:57:02;100408.38;;;-2.42;80.87
16690;BME280;8458;52.220;9.884;2022-11-20T03:59:28;100419.25;;;-2.42;80.84
16690;BME280;8458;52.220;9.884;2022-11-20T04:01:54;100410.47;;;-2.44;80.78
16690;BME280;8458;52.220;9.884;2022-11-20T04:04:21;100406.03;;;-2.45;80.82
16690;BME280;8458;52.220;9.884;2022-11-20T04:06:49;100404.06;;;-2.51;80.85
16690;BME280;8458;52.220;9.884;2022-11-20T04:09:15;100399.59;;;-2.44;81.53
16690;BME280;8458;52.220;9.884;2022-11-20T04:11:42;100396.69;;;-2.42;81.01
16690;BME280;8458;52.220;9.884;2022-11-20T04:14:13;100397.91;;;-2.45;81.22
16690;BME280;8458;52.220;9.884;2022-11-20T04:16:40;100401.66;;;-2.46;81.14
16690;BME280;8458;52.220;9.884;2022-11-20T04:19:10;100399.13;;;-2.47;81.23
16690;BME280;8458;52.220;9.884;2022-11-20T04:21:37;100392.84;;;-2.48;81.56
16690;BME280;8458;52.220;9.884;2022-11-20T04:24:06;100392.19;;;-2.50;81.11
16690;BME280;8458;52.220;9.884;2022-11-20T04:26:32;100390.22;;;-2.56;81.62
16690;BME280;8458;52.220;9.884;2022-11-20T04:28:59;100393.22;;;-2.51;81.48
16690;BME280;8458;52.220;9.884;2022-11-20T04:31:28;100385.16;;;-2.59;81.52
16690;BME280;8458;52.220;9.884;2022-11-20T04:33:55;100383.28;;;-2.74;81.87
16690;BME280;8458;52.220;9.884;2022-11-20T04:36:23;100389.53;;;-2.73;81.92
16690;BME280;8458;52.220;9.884;2022-11-20T04:38:50;100388.72;;;-2.74;81.92
16690;BME280;8458;52.220;9.884;2022-11-20T04:41:20;100394.03;;;-2.80;81.94
16690;BME280;8458;52.220;9.884;2022-11-20T04:43:48;100388.84;;;-2.90;82.05
16690;BME280;8458;52.220;9.884;2022-11-20T04:46:14;100385.84;;;-2.95;82.75
16690;BME280;8458;52.220;9.884;2022-11-20T04:48:41;100382.78;;;-2.92;82.46
16690;BME280;8458;52.220;9.884;2022-11-20T04:51:08;100388.50;;;-2.87;82.40
16690;BME280;8458;52.220;9.884;2022-11-20T04:53:34;100389.81;;;-2.83;82.47
16690;BME280;8458;52.220;9.884;2022-11-20T04:56:01;100386.47;;;-2.85;82.46
16690;BME280;8458;52.220;9.884;2022-11-20T04:58:29;100385.34;;;-2.76;82.36
16690;BME280;8458;52.220;9.884;2022-11-20T05:01:01;100385.34;;;-2.76;82.23
16690;BME280;8458;52.220;9.884;2022-11-20T05:03:28;100391.63;;;-2.75;81.82
16690;BME280;8458;52.220;9.884;2022-11-20T05:05:54;100380.47;;;-2.80;82.43
16690;BME280;8458;52.220;9.884;2022-11-20T05:08:21;100385.13;;;-2.89;82.49
16690;BME280;8458;52.220;9.884;2022-11-20T05:10:47;100385.72;;;-2.79;82.49
16690;BME280;8458;52.220;9.884;2022-11-20T05:13:14;100387.19;;;-2.91;82.80
16690;BME280;8458;52.220;9.884;2022-11-20T05:15:41;100378.97;;;-2.83;83.14
16690;BME280;8458;52.220;9.884;2022-11-20T05:18:08;100379.91;;;-2.76;83.05
16690;BME280;8458;52.220;9.884;2022-11-20T05:20:34;100376.28;;;-2.68;83.13
16690;BME280;8458;52.220;9.884;2022-11-20T05:23:01;100359.81;;;-2.66;83.44
16690;BME280;8458;52.220;9.884;2022-11-20T05:25:28;100357.94;;;-2.66;83.48
16690;BME280;8458;52.220;9.884;2022-11-20T05:27:54;100361.47;;;-2.65;83.93
16690;BME280;8458;52.220;9.884;2022-11-20T05:30:21;100367.19;;;-2.60;83.72
16690;BME280;8458;52.220;9.884;2022-11-20T05:32:48;100368.88;;;-2.59;83.58
16690;BME280;8458;52.220;9.884;2022-11-20T05:35:15;100351.84;;;-2.53;83.92
16690;BME280;8458;52.220;9.884;2022-11-20T05:37:42;100358.59;;;-2.49;83.50
16690;BME280;8458;52.220;9.884;2022-11-20T05:40:09;100360.53;;;-2.58;83.37
16690;BME280;8458;52.220;9.884;2022-11-20T05:42:36;100361.28;;;-2.64;83.53
16690;BME280;8458;52.220;9.884;2022-11-20T05:45:04;100355.94;;;-2.57;83.77
16690;BME280;8458;52.220;9.884;2022-11-20T05:47:33;100354.56;;;-2.53;83.14
16690;BME280;8458;52.220;9.884;2022-11-20T05:50:01;100369.53;;;-2.57;83.47
16690;BME280;8458;52.220;9.884;2022-11-20T05:52:28;100368.31;;;-2.69;83.90
16690;BME280;8458;52.220;9.884;2022-11-20T05:54:54;100361.47;;;-2.65;84.12
16690;BME280;8458;52.220;9.884;2022-11-20T05:57:21;100371.47;;;-2.81;84.41
16690;BME280;8458;52.220;9.884;2022-11-20T05:59:47;100368.41;;;-3.16;85.29
16690;BME280;8458;52.220;9.884;2022-11-20T06:02:14;100362.63;;;-3.13;85.69
16690;BME280;8458;52.220;9.884;2022-11-20T06:04:40;100362.63;;;-3.13;85.82
16690;BME280;8458;52.220;9.884;2022-11-20T06:07:08;100363.38;;;-3.04;85.66
16690;BME280;8458;52.220;9.884;2022-11-20T06:09:35;100361.88;;;-3.07;85.72
16690;BME280;8458;52.220;9.884;2022-11-20T06:12:02;100361.88;;;-3.07;85.75
16690;BME280;8458;52.220;9.884;2022-11-20T06:14:28;100358.75;;;-3.18;86.15
16690;BME280;8458;52.220;9.884;2022-11-20T06:16:55;100366.13;;;-3.27;87.09
16690;BME280;8458;52.220;9.884;2022-11-20T06:19:21;100371.16;;;-3.24;87.12
16690;BME280;8458;52.220;9.884;2022-11-20T06:21:48;100370.59;;;-3.11;86.75
16690;BME280;8458;52.220;9.884;2022-11-20T06:24:16;100366.00;;;-3.11;86.62
16690;BME280;8458;52.220;9.884;2022-11-20T06:26:43;100364.25;;;-3.03;86.86
16690;BME280;8458;52.220;9.884;2022-11-20T06:29:10;100357.22;;;-2.98;86.47
16690;BME280;8458;52.220;9.884;2022-11-20T06:31:36;100358.81;;;-3.03;86.94
16690;BME280;8458;52.220;9.884;2022-11-20T06:34:03;100354.31;;;-2.96;87.37
16690;BME280;8458;52.220;9.884;2022-11-20T06:36:30;100351.22;;;-2.93;87.21
16690;BME280;8458;52.220;9.884;2022-11-20T06:38:57;100352.38;;;-2.88;87.72
16690;BME280;8458;52.220;9.884;2022-11-20T06:41:25;100358.00;;;-2.89;87.34
16690;BME280;8458;52.220;9.884;2022-11-20T06:43:51;100357.03;;;-2.96;87.87
16690;BME280;8458;52.220;9.884;2022-11-20T06:46:19;100350.13;;;-2.84;87.77
16690;BME280;8458;52.220;9.884;2022-11-20T06:48:46;100349.75;;;-2.81;87.48
16690;BME280;8458;52.220;9.884;2022-11-20T06:51:13;100343.03;;;-2.85;87.49
16690;BME280;8458;52.220;9.884;2022-11-20T06:53:40;100349.56;;;-2.79;87.08
16690;BME280;8458;52.220;9.884;2022-11-20T06:56:07;100346.22;;;-2.81;87.07
16690;BME280;8458;52.220;9.884;2022-11-20T06:58:35;100349.38;;;-2.78;86.90
16690;BME280;8458;52.220;9.884;2022-11-20T07:01:04;100339.09;;;-2.67;86.88
16690;BME280;8458;52.220;9.884;2022-11-20T07:03:31;100336.78;;;-2.71;87.24
16690;BME280;8458;52.220;9.884;2022-11-20T07:05:58;100328.25;;;-2.67;86.96
16690;BME280;8458;52.220;9.884;2022-11-20T07:08:26;100314.56;;;-2.59;87.04
16690;BME280;8458;52.220;9.884;2022-11-20T07:10:52;100322.81;;;-2.53;86.51
16690;BME280;8458;52.220;9.884;2022-11-20T07:13:19;100340.03;;;-2.75;87.14
16690;BME280;8458;52.220;9.884;2022-11-20T07:15:47;100330.13;;;-2.83;88.14
16690;BME280;8458;52.220;9.884;2022-11-20T07:18:13;100342.44;;;-2.95;88.08
16690;BME280;8458;52.220;9.884;2022-11-20T07:20:40;100350.97;;;-2.98;88.06
16690;BME280;8458;52.220;9.884;2022-11-20T07:23:06;100338.22;;;-2.98;88.03
16690;BME280;8458;52.220;9.884;2022-11-20T07:25:32;100344.22;;;-2.88;88.20
16690;BME280;8458;52.220;9.884;2022-11-20T07:28:00;100344.13;;;-2.94;88.46
16690;BME280;8458;52.220;9.884;2022-11-20T07:30:26;100342.66;;;-2.82;87.43
16690;BME280;8458;52.220;9.884;2022-11-20T07:32:55;100341.56;;;-2.73;87.15
16690;BME280;8458;52.220;9.884;2022-11-20T07:35:22;100344.16;;;-2.64;87.47
16690;BME280;8458;52.220;9.884;2022-11-20T07:37:48;100343.78;;;-2.61;86.92
16690;BME280;8458;52.220;9.884;2022-11-20T07:40:15;100334.22;;;-2.57;86.96
16690;BME280;8458;52.220;9.884;2022-11-20T07:42:47;100335.91;;;-2.56;86.37
16690;BME280;8458;52.220;9.884;2022-11-20T07:45:13;100341.34;;;-2.56;85.92
16690;BME280;8458;52.220;9.884;2022-11-20T07:47:40;100342.09;;;-2.47;85.67
16690;BME280;8458;52.220;9.884;2022-11-20T07:50:08;100343.22;;;-2.42;85.12
16690;BME280;8458;52.220;9.884;2022-11-20T07:52:35;100350.16;;;-2.39;84.59
16690;BME280;8458;52.220;9.884;2022-11-20T07:55:01;100352.09;;;-2.48;84.28
16690;BME280;8458;52.220;9.884;2022-11-20T07:57:28;100356.16;;;-2.44;83.69
16690;BME280;8458;52.220;9.884;2022-11-20T07:59:54;100352.03;;;-2.40;83.71
16690;BME280;8458;52.220;9.884;2022-11-20T08:02:20;100350.34;;;-2.41;83.98
16690;BME280;8458;52.220;9.884;2022-11-20T08:04:47;100346.97;;;-2.43;83.80
16690;BME280;8458;52.220;9.884;2022-11-20T08:07:15;100349.69;;;-2.43;83.77
16690;BME280;8458;52.220;9.884;2022-11-20T08:09:41;100346.41;;;-2.53;84.05
16690;BME280;8458;52.220;9.884;2022-11-20T08:12:08;100351.66;;;-2.66;84.74
16690;BME280;8458;52.220;9.884;2022-11-20T08:14:52;100370.72;;;-2.75;86.26
16690;BME280;8458;52.220;9.884;2022-11-20T08:17:20;100356.59;;;-2.70;85.93
16690;BME280;8458;52.220;9.884;2022-11-20T08:19:46;100361.56;;;-2.74;86.53
16690;BME280;8458;52.220;9.884;2022-11-20T08:22:14;100353.06;;;-2.71;86.53
16690;BME280;8458;52.220;9.884;2022-11-20T08:24:42;100347.91;;;-2.65;86.26
16690;BME280;8458;52.220;9.884;2022-11-20T08:27:09;100350.69;;;-2.59;85.89
16690;BME280;8458;52.220;9.884;2022-11-20T08:29:35;100355.84;;;-2.64;86.03
16690;BME280;8458;52.220;9.884;2022-11-20T08:32:02;100354.25;;;-2.28;88.77
16690;BME280;8458;52.220;9.884;2022-11-20T08:34:28;100363.44;;;-2.29;86.26
16690;BME280;8458;52.220;9.884;2022-11-20T08:36:55;100360.41;;;-2.05;84.87
16690;BME280;8458;52.220;9.884;2022-11-20T08:39:22;100358.06;;;-2.08;83.91
16690;BME280;8458;52.220;9.884;2022-11-20T08:41:49;100355.72;;;-2.11;83.33
16690;BME280;8458;52.220;9.884;2022-11-20T08:44:15;100354.81;;;-2.18;82.97
16690;BME280;8458;52.220;9.884;2022-11-20T08:46:42;100363.44;;;-2.29;83.06
16690;BME280;8458;52.220;9.884;2022-11-20T08:49:12;100351.44;;;-2.20;83.16
16690;BME280;8458;52.220;9.884;2022-11-20T08:51:39;100352.13;;;-2.18;83.51
16690;BME280;8458;52.220;9.884;2022-11-20T08:54:06;100351.44;;;-2.20;83.22
16690;BME280;8458;52.220;9.884;2022-11-20T08:56:34;100353.97;;;-2.19;83.28
16690;BME280;8458;52.220;9.884;2022-11-20T08:59:01;100360.06;;;-2.31;84.00
16690;BME280;8458;52.220;9.884;2022-11-20T09:01:28;100358.50;;;-2.26;84.08
16690;BME280;8458;52.220;9.884;2022-11-20T09:03:55;100357.63;;;-2.26;84.20
16690;BME280;8458;52.220;9.884;2022-11-20T09:06:22;100355.59;;;-2.24;84.32
16690;BME280;8458;52.220;9.884;2022-11-20T09:08:51;100353.06;;;-2.26;84.18
16690;BME280;8458;52.220;9.884;2022-11-20T09:11:18;100353.25;;;-2.27;84.16
16690;BME280;8458;52.220;9.884;2022-11-20T09:13:46;100353.06;;;-2.26;84.27
16690;BME280;8458;52.220;9.884;2022-11-20T09:16:12;100347.25;;;-2.23;84.37
16690;BME280;8458;52.220;9.884;2022-11-20T09:18:38;100335.91;;;-2.26;84.80
16690;BME280;8458;52.220;9.884;2022-11-20T09:21:08;100322.22;;;-2.18;85.14
16690;BME280;8458;52.220;9.884;2022-11-20T09:23:36;100307.88;;;-2.12;84.71
16690;BME280;8458;52.220;9.884;2022-11-20T09:26:04;100313.19;;;-2.04;84.16
16690;BME280;8458;52.220;9.884;2022-11-20T09:28:31;100317.47;;;-1.94;83.07
16690;BME280;8458;52.220;9.884;2022-11-20T09:30:59;100337.06;;;-1.84;82.07
16690;BME280;8458;52.220;9.884;2022-11-20T09:33:25;100346.97;;;-1.76;81.29
16690;BME280;8458;52.220;9.884;2022-11-20T09:35:52;100340.66;;;-1.77;81.78
16690;BME280;8458;52.220;9.884;2022-11-20T09:38:18;100343.31;;;-1.84;82.54
16690;BME280;8458;52.220;9.884;2022-11-20T09:40:48;100342.59;;;-1.92;82.45
16690;BME280;8458;52.220;9.884;2022-11-20T09:43:22;100345.69;;;-1.95;83.19
16690;BME280;8458;52.220;9.884;2022-11-20T09:46:00;100329.84;;;-1.92;84.44
16690;BME280;8458;52.220;9.884;2022-11-20T09:48:47;100321.19;;;-1.81;83.41
16690;BME280;8458;52.220;9.884;2022-11-20T09:51:24;100304.31;;;-1.76;83.07
16690;BME280;8458;52.220;9.884;2022-11-20T09:54:04;100292.00;;;-1.72;82.81
16690;BME280;8458;52.220;9.884;2022-11-20T09:56:33;100299.31;;;-1.72;83.07
16690;BME280;8458;52.220;9.884;2022-11-20T09:59:04;100289.69;;;-1.75;82.35
16690;BME280;8458;52.220;9.884;2022-11-20T10:01:35;100297.34;;;-1.78;81.88
16690;BME280;8458;52.220;9.884;2022-11-20T10:04:04;100301.44;;;-1.68;81.99
16690;BME280;8458;52.220;9.884;2022-11-20T10:06:34;100304.84;;;-1.66;82.57
16690;BME280;8458;52.220;9.884;2022-11-20T10:09:18;100324.94;;;-1.60;82.77
16690;BME280;8458;52.220;9.884;2022-11-20T10:11:52;100331.81;;;-1.64;83.43
16690;BME280;8458;52.220;9.884;2022-11-20T10:14:29;100324.94;;;-1.60;83.42
16690;BME280;8458;52.220;9.884;2022-11-20T10:17:05;100336.41;;;-1.43;83.68
16690;BME280;8458;52.220;9.884;2022-11-20T10:19:47;100337.19;;;-1.49;83.51
16690;BME280;8458;52.220;9.884;2022-11-20T10:22:27;100336.16;;;-1.48;84.23
16690;BME280;8458;52.220;9.884;2022-11-20T10:25:02;100342.13;;;-1.38;83.81
16690;BME280;8458;52.220;9.884;2022-11-20T10:27:41;100331.16;;;-1.23;82.75
16690;BME280;8458;52.220;9.884;2022-11-20T10:30:15;100321.38;;;-1.17;82.09
16690;BME280;8458;52.220;9.884;2022-11-20T10:32:47;100325.06;;;-1.03;82.02
16690;BME280;8458;52.220;9.884;2022-11-20T10:35:20;100318.47;;;-0.87;81.66
16690;BME280;8458;52.220;9.884;2022-11-20T10:37:51;100313.50;;;-0.77;82.00
16690;BME280;8458;52.220;9.884;2022-11-20T10:40:23;100314.16;;;-0.75;80.64
16690;BME280;8458;52.220;9.884;2022-11-20T10:42:53;100309.81;;;-0.63;80.84
16690;BME280;8458;52.220;9.884;2022-11-20T10:45:32;100309.91;;;-0.49;80.03
16690;BME280;8458;52.220;9.884;2022-11-20T10:48:10;100320.81;;;-0.49;78.90
16690;BME280;8458;52.220;9.884;2022-11-20T10:50:44;100313.25;;;-0.47;78.70
16690;BME280;8458;52.220;9.884;2022-11-20T10:53:20;100306.59;;;-0.45;79.33
16690;BME280;8458;52.220;9.884;2022-11-20T10:55:56;100309.34;;;-0.38;79.33
16690;BME280;8458;52.220;9.884;2022-11-20T10:58:32;100307.88;;;-0.34;78.46
16690;BME280;8458;52.220;9.884;2022-11-20T11:01:04;100300.97;;;-0.30;77.46
16690;BME280;8458;52.220;9.884;2022-11-20T11:03:32;100293.41;;;-0.34;77.48
16690;BME280;8458;52.220;9.884;2022-11-20T11:06:03;100291.09;;;-0.38;77.19
16690;BME280;8458;52.220;9.884;2022-11-20T11:08:36;100289.44;;;-0.32;77.00
16690;BME280;8458;52.220;9.884;2022-11-20T11:11:18;100278.53;;;-0.32;77.43
16690;BME280;8458;52.220;9.884;2022-11-20T11:13:44;100273.53;;;-0.28;77.77
16690;BME280;8458;52.220;9.884;2022-11-20T11:16:20;100269.38;;;-0.17;78.18
16690;BME280;8458;52.220;9.884;2022-11-20T11:18:48;100268.56;;;-0.11;78.28
16690;BME280;8458;52.220;9.884;2022-11-20T11:21:21;100272.13;;;-0.11;79.03
16690;BME280;8458;52.220;9.884;2022-11-20T11:23:57;100279.25;;;-0.10;78.86
16690;BME280;8458;52.220;9.884;2022-11-20T11:26:24;100271.69;;;-0.14;78.98
16690;BME280;8458;52.220;9.884;2022-11-20T11:28:55;100264.19;;;-0.06;78.82
16690;BME280;8458;52.220;9.884;2022-11-20T11:31:23;100264.16;;;-0.12;79.39
16690;BME280;8458;52.220;9.884;2022-11-20T11:33:51;100263.56;;;-0.01;79.02
16690;BME280;8458;52.220;9.884;2022-11-20T11:36:21;100268.00;;;0.07;78.73
16690;BME280;8458;52.220;9.884;2022-11-20T11:38:51;100263.56;;;0.12;79.77
16690;BME280;8458;52.220;9.884;2022-11-20T11:41:20;100257.72;;;0.15;79.12
16690;BME280;8458;52.220;9.884;2022-11-20T11:43:52;100258.13;;;0.12;78.37
16690;BME280;8458;52.220;9.884;2022-11-20T11:46:37;100262.75;;;0.18;78.36
16690;BME280;8458;52.220;9.884;2022-11-20T11:49:16;100258.94;;;0.06;78.02
16690;BME280;8458;52.220;9.884;2022-11-20T11:52:00;100255.38;;;-0.01;76.90
16690;BME280;8458;52.220;9.884;2022-11-20T11:54:32;100253.06;;;0.03;77.49
16690;BME280;8458;52.220;9.884;2022-11-20T11:57:05;100260.44;;;0.02;78.10
16690;BME280;8458;52.220;9.884;2022-11-20T11:59:44;100250.16;;;0.04;77.75
16690;BME280;8458;52.220;9.884;2022-11-20T12:02:25;100245.53;;;0.05;78.20
16690;BME280;8458;52.220;9.884;2022-11-20T12:04:59;100240.09;;;0.11;77.94
16690;BME280;8458;52.220;9.884;2022-11-20T12:07:38;100243.91;;;0.24;77.85
16690;BME280;8458;52.220;9.884;2022-11-20T12:10:14;100224.16;;;0.22;76.86
16690;BME280;8458;52.220;9.884;2022-11-20T12:12:44;100220.38;;;0.29;76.87
16690;BME280;8458;52.220;9.884;2022-11-20T12:15:19;100225.00;;;0.29;76.70
16690;BME280;8458;52.220;9.884;2022-11-20T12:17:46;100223.13;;;0.36;77.25
16690;BME280;8458;52.220;9.884;2022-11-20T12:20:14;100223.13;;;0.43;77.66
16690;BME280;8458;52.220;9.884;2022-11-20T12:22:45;100224.19;;;0.48;77.36
16690;BME280;8458;52.220;9.884;2022-11-20T12:25:19;100233.19;;;0.56;77.62
16690;BME280;8458;52.220;9.884;2022-11-20T12:28:16;100230.91;;;0.52;77.74
16690;BME280;8458;52.220;9.884;2022-11-20T12:30:56;100230.06;;;0.59;77.51
16690;BME280;8458;52.220;9.884;2022-11-20T12:33:38;100225.03;;;0.62;77.13
16690;BME280;8458;52.220;9.884;2022-11-20T12:36:19;100223.34;;;0.68;77.53
16690;BME280;8458;52.220;9.884;2022-11-20T12:39:20;100220.41;;;0.63;78.36
16690;BME280;8458;52.220;9.884;2022-11-20T12:42:08;100218.28;;;0.78;78.67
16690;BME280;8458;52.220;9.884;2022-11-20T12:45:14;100204.41;;;0.86;77.56
16690;BME280;8458;52.220;9.884;2022-11-20T12:50:54;100214.91;;;0.89;78.16
16690;BME280;8458;52.220;9.884;2022-11-20T12:53:33;100209.88;;;0.86;77.60
16690;BME280;8458;52.220;9.884;2022-11-20T12:56:13;100209.44;;;0.89;78.20
16690;BME280;8458;52.220;9.884;2022-11-20T12:58:55;100211.75;;;0.99;78.42
16690;BME280;8458;52.220;9.884;2022-11-20T13:01:31;100203.13;;;1.09;78.99
16690;BME280;8458;52.220;9.884;2022-11-20T13:04:18;100203.94;;;1.16;78.71
16690;BME280;8458;52.220;9.884;2022-11-20T13:06:51;100198.50;;;1.16;77.92
16690;BME280;8458;52.220;9.884;2022-11-20T13:09:20;100195.13;;;1.14;78.59
16690;BME280;8458;52.220;9.884;2022-11-20T13:11:50;100203.94;;;1.16;78.27
16690;BME280;8458;52.220;9.884;2022-11-20T13:14:29;100200.97;;;1.24;78.55
16690;BME280;8458;52.220;9.884;2022-11-20T13:17:02;100197.63;;;1.22;78.58
16690;BME280;8458;52.220;9.884;2022-11-20T13:19:31;100197.19;;;1.25;78.65
16690;BME280;8458;52.220;9.884;2022-11-20T13:21:58;100203.09;;;1.22;78.29